Time;durP1;ratioP1;P1;durP2;ratioP2;P2;SDS_P1;SDS_P2;PMS_P1;PMS_P2;Temp;Humidity;BMP_temperature;BMP_pressure;BME280_temperature;BME280_humidity;BME280_pressure;Samples;Min_cycle;Max_cycle;Signal;HPM_P1;HPM_P2
2021/06/19 00:02:23;;;;;;;17.43;16.17;;;;;;;20.49;82.09;97782.50;5105389;27;20206;-70
2021/06/19 00:04:51;;;;;;;16.87;15.70;;;;;;;20.37;82.70;97765.53;5100222;28;20633;-70
2021/06/19 00:07:19;;;;;;;18.13;16.80;;;;;;;20.31;83.58;97764.59;5104603;28;20233;-70
2021/06/19 00:09:47;;;;;;;19.23;17.93;;;;;;;20.39;82.71;97766.13;5098592;28;20221;-72
2021/06/19 00:12:16;;;;;;;18.23;16.83;;;;;;;20.35;82.92;97778.41;5100101;28;20216;-70
2021/06/19 00:14:45;;;;;;;18.13;16.97;;;;;;;20.43;82.42;97774.53;5104974;27;20923;-71
2021/06/19 00:17:13;;;;;;;18.07;16.87;;;;;;;20.55;82.00;97778.06;5104946;27;20244;-69
2021/06/19 00:19:42;;;;;;;17.13;16.03;;;;;;;20.57;82.04;97772.44;5101891;28;20353;-71
2021/06/19 00:22:09;;;;;;;18.20;16.93;;;;;;;20.64;81.68;97770.44;5102098;28;20206;-71
2021/06/19 00:24:39;;;;;;;19.93;18.07;;;;;;;20.59;81.64;97778.41;5103995;28;20687;-70
2021/06/19 00:27:10;;;;;;;18.43;17.23;;;;;;;20.44;82.88;97777.00;5098775;28;20217;-70
2021/06/19 00:29:39;;;;;;;18.27;16.87;;;;;;;20.31;83.49;97777.25;5103858;27;20221;-70
2021/06/19 00:32:07;;;;;;;18.93;17.63;;;;;;;20.25;83.80;97777.09;5102767;28;20507;-70
2021/06/19 00:34:35;;;;;;;19.00;17.70;;;;;;;20.44;82.81;97777.00;5103166;27;20682;-70
2021/06/19 00:37:03;;;;;;;18.87;17.40;;;;;;;20.37;83.05;97785.19;5103108;28;20225;-71
2021/06/19 00:39:36;;;;;;;19.17;17.50;;;;;;;20.20;84.58;97784.25;5100992;28;20198;-70
2021/06/19 00:42:04;;;;;;;17.77;16.63;;;;;;;20.18;85.09;97791.72;5102761;28;20201;-70
2021/06/19 00:44:32;;;;;;;19.10;17.80;;;;;;;20.13;85.49;97795.09;5104118;27;20228;-70
2021/06/19 00:47:02;;;;;;;18.87;17.57;;;;;;;20.15;85.78;97790.31;5104246;28;20236;-70
2021/06/19 00:49:30;;;;;;;19.03;17.63;;;;;;;20.04;86.37;97801.88;5102998;28;20221;-70
2021/06/19 00:51:58;;;;;;;19.23;17.83;;;;;;;20.01;86.39;97800.44;5105527;27;20202;-69
2021/06/19 00:54:27;;;;;;;19.73;18.47;;;;;;;20.00;86.30;97804.19;5103161;28;20210;-69
2021/06/19 00:56:56;;;;;;;20.97;19.27;;;;;;;19.95;87.23;97807.59;5104009;28;20221;-70
2021/06/19 00:59:23;;;;;;;21.17;19.53;;;;;;;19.97;87.04;97809.22;5100911;28;20216;-72
2021/06/19 01:01:51;;;;;;;20.23;18.87;;;;;;;20.11;85.50;97810.66;5100585;28;20212;-70
2021/06/19 01:04:21;;;;;;;21.10;19.70;;;;;;;19.95;85.86;97806.75;5103269;28;20197;-70
2021/06/19 01:06:49;;;;;;;20.03;18.63;;;;;;;20.06;85.88;97805.16;5099513;28;20218;-69
2021/06/19 01:09:17;;;;;;;19.63;18.43;;;;;;;19.99;86.45;97799.84;5103080;28;20693;-70
2021/06/19 01:11:45;;;;;;;20.53;19.03;;;;;;;19.95;86.38;97802.22;5099156;28;20197;-70
2021/06/19 01:14:13;;;;;;;19.63;18.33;;;;;;;19.85;87.06;97803.78;5103605;27;20738;-69
2021/06/19 01:16:44;;;;;;;20.57;19.07;;;;;;;20.02;85.87;97806.66;5100412;28;20233;-71
2021/06/19 01:19:13;;;;;;;20.60;19.23;;;;;;;19.99;85.87;97810.63;5102025;28;20228;-70
2021/06/19 01:21:42;;;;;;;18.70;17.43;;;;;;;19.90;87.08;97828.97;5102237;28;20205;-70
2021/06/19 01:24:13;;;;;;;20.67;19.10;;;;;;;19.67;89.29;97837.69;5100460;28;20297;-70
2021/06/19 01:26:43;;;;;;;20.50;19.00;;;;;;;19.85;87.51;97831.47;5099527;28;20224;-71
2021/06/19 01:29:11;;;;;;;20.03;18.60;;;;;;;19.67;88.78;97835.00;5100764;28;20601;-70
2021/06/19 01:31:40;;;;;;;19.57;18.27;;;;;;;19.86;87.57;97833.09;5102040;28;20614;-70
2021/06/19 01:34:08;;;;;;;20.10;18.60;;;;;;;19.75;88.29;97826.66;5102723;28;20198;-71
2021/06/19 01:36:36;;;;;;;20.80;19.13;;;;;;;19.71;88.18;97822.78;5102488;28;20258;-69
2021/06/19 01:39:09;;;;;;;20.90;19.30;;;;;;;19.60;90.34;97824.38;5100958;28;20197;-70
2021/06/19 01:41:37;;;;;;;22.77;21.13;;;;;;;19.63;89.89;97826.59;5102144;28;20197;-71
2021/06/19 01:44:08;;;;;;;19.83;18.30;;;;;;;19.72;88.42;97829.81;5102184;28;20213;-71
2021/06/19 01:46:37;;;;;;;22.50;20.93;;;;;;;19.67;89.69;97841.22;5104154;27;20304;-72
2021/06/19 01:49:05;;;;;;;21.83;20.23;;;;;;;19.81;88.19;97844.56;5105438;28;20717;-71
2021/06/19 01:51:33;;;;;;;20.43;19.03;;;;;;;19.60;89.74;97848.56;5114859;28;20205;-72
2021/06/19 01:54:01;;;;;;;20.13;18.53;;;;;;;19.60;90.03;97855.78;5109965;28;20229;-70
2021/06/19 01:56:29;;;;;;;21.63;20.03;;;;;;;19.49;90.43;97855.50;5106859;28;20201;-71
2021/06/19 01:58:57;;;;;;;20.73;19.27;;;;;;;19.56;89.85;97858.13;5102194;28;20396;-71
2021/06/19 02:01:27;;;;;;;20.90;19.30;;;;;;;19.53;90.30;97856.69;5101654;28;20642;-72
2021/06/19 02:03:55;;;;;;;20.60;19.13;;;;;;;19.47;90.97;97846.84;5101656;28;20209;-71
2021/06/19 02:06:23;;;;;;;21.70;20.30;;;;;;;19.45;90.92;97835.50;5101362;28;20206;-70
2021/06/19 02:09:02;;;;;;;20.77;19.23;;;;;;;19.46;90.58;97834.47;5099691;28;20205;-70
2021/06/19 02:11:30;;;;;;;21.57;20.07;;;;;;;19.54;90.42;97836.03;5103622;27;20866;-71
2021/06/19 02:13:58;;;;;;;20.83;19.13;;;;;;;19.53;90.56;97832.50;5102531;28;20213;-70
2021/06/19 02:16:27;;;;;;;22.20;20.67;;;;;;;19.55;90.03;97831.47;5102957;28;20205;-71
2021/06/19 02:18:55;;;;;;;20.67;19.27;;;;;;;19.37;91.63;97830.44;5100975;28;20250;-71
2021/06/19 02:21:23;;;;;;;20.97;19.43;;;;;;;19.42;91.46;97827.06;5102198;28;20201;-70
2021/06/19 02:23:51;;;;;;;20.80;19.40;;;;;;;19.42;91.46;97821.69;5100580;27;20678;-71
2021/06/19 02:26:19;;;;;;;21.43;20.03;;;;;;;19.25;92.90;97841.13;5101098;28;20233;-71
2021/06/19 02:28:47;;;;;;;22.20;20.47;;;;;;;19.15;94.06;97848.88;5102091;28;20229;-71
2021/06/19 02:31:15;;;;;;;22.77;21.07;;;;;;;19.07;94.10;97845.41;5101321;28;21167;-70
2021/06/19 02:33:46;;;;;;;23.57;21.87;;;;;;;19.33;92.04;97835.44;5101809;28;20201;-71
2021/06/19 02:36:14;;;;;;;23.37;21.77;;;;;;;19.07;94.32;97844.63;5101392;28;20380;-72
2021/06/19 02:38:42;;;;;;;20.60;19.30;;;;;;;19.17;93.85;97844.09;5099907;28;20311;-72
2021/06/19 02:41:10;;;;;;;21.57;20.20;;;;;;;18.98;95.51;97857.50;5100822;28;20205;-71
2021/06/19 02:43:41;;;;;;;21.13;19.63;;;;;;;19.09;94.83;97864.00;5100145;28;20209;-71
2021/06/19 02:46:09;;;;;;;20.93;19.63;;;;;;;19.11;94.19;97875.34;5100481;28;20244;-71
2021/06/19 02:48:37;;;;;;;20.43;19.00;;;;;;;19.19;93.92;97872.38;5100332;28;20471;-71
2021/06/19 02:51:06;;;;;;;20.30;19.00;;;;;;;19.24;93.11;97877.09;5101744;28;20218;-71
2021/06/19 02:53:34;;;;;;;21.27;19.80;;;;;;;19.21;93.89;97867.59;5100609;28;20946;-71
2021/06/19 02:56:02;;;;;;;20.73;19.33;;;;;;;19.12;94.90;97877.00;5102996;28;20208;-70
2021/06/19 02:58:30;;;;;;;21.93;20.33;;;;;;;19.37;92.70;97884.19;5100994;28;20672;-70
2021/06/19 03:00:58;;;;;;;20.97;19.57;;;;;;;19.30;92.94;97873.50;5102323;28;20209;-70
2021/06/19 03:03:26;;;;;;;21.03;19.53;;;;;;;19.30;92.92;97878.88;5100082;28;21288;-71
2021/06/19 03:06:00;;;;;;;20.37;19.07;;;;;;;19.16;93.91;97872.00;5098404;28;20236;-71
2021/06/19 03:08:29;;;;;;;21.40;19.80;;;;;;;19.36;92.32;97867.22;5099595;28;20220;-70
2021/06/19 03:10:57;;;;;;;20.27;18.97;;;;;;;19.16;94.01;97870.13;5099486;28;20237;-70
2021/06/19 03:13:25;;;;;;;21.50;19.80;;;;;;;19.13;94.46;97867.06;5101235;28;20201;-71
2021/06/19 03:15:53;;;;;;;21.00;19.47;;;;;;;19.11;94.57;97869.97;5101082;28;20350;-71
2021/06/19 03:18:21;;;;;;;21.00;19.50;;;;;;;19.20;94.14;97867.84;5099914;28;20221;-70
2021/06/19 03:20:50;;;;;;;21.87;20.37;;;;;;;19.08;94.70;97865.88;5102867;28;20210;-70
2021/06/19 03:23:18;;;;;;;23.60;21.83;;;;;;;19.32;92.53;97863.34;5100665;28;20554;-70
2021/06/19 03:25:47;;;;;;;22.73;21.03;;;;;;;19.20;93.74;97857.91;5101073;28;20213;-70
2021/06/19 03:28:16;;;;;;;21.67;20.17;;;;;;;19.24;93.34;97869.84;5103399;28;20711;-70
2021/06/19 03:30:45;;;;;;;21.70;20.00;;;;;;;19.30;92.75;97861.91;5101741;28;20221;-70
2021/06/19 03:33:14;;;;;;;21.57;20.17;;;;;;;19.32;92.86;97852.59;5101331;28;20457;-70
2021/06/19 03:35:42;;;;;;;22.77;21.20;;;;;;;19.30;92.98;97860.06;5101984;28;20440;-70
2021/06/19 03:38:10;;;;;;;20.17;18.67;;;;;;;19.27;93.82;97857.00;5101173;28;20578;-71
2021/06/19 03:40:39;;;;;;;21.83;20.27;;;;;;;19.34;93.49;97866.63;5099578;28;20276;-72
2021/06/19 03:43:08;;;;;;;22.50;20.57;;;;;;;19.54;90.95;97862.91;5099301;28;20201;-71
2021/06/19 03:45:37;;;;;;;21.20;19.70;;;;;;;19.43;91.86;97877.06;5101993;28;20210;-71
2021/06/19 03:48:06;;;;;;;21.33;19.83;;;;;;;19.45;92.61;97878.50;5099939;28;20222;-70
2021/06/19 03:50:35;;;;;;;20.90;19.40;;;;;;;19.36;92.70;97891.41;5101013;28;20306;-70
2021/06/19 03:53:04;;;;;;;22.27;20.60;;;;;;;19.46;92.36;97898.13;5100272;28;20563;-71
2021/06/19 03:55:32;;;;;;;21.60;20.17;;;;;;;19.48;92.50;97904.09;5100899;28;20213;-70
2021/06/19 03:58:01;;;;;;;23.30;21.37;;;;;;;19.56;91.45;97895.75;5100779;28;20229;-71
2021/06/19 04:00:30;;;;;;;22.67;21.13;;;;;;;19.70;90.82;97893.72;5100243;28;20208;-71
2021/06/19 04:02:59;;;;;;;22.47;21.03;;;;;;;19.56;91.80;97897.59;5107303;27;20213;-71
2021/06/19 04:05:27;;;;;;;21.17;19.57;;;;;;;19.70;90.68;97896.41;5104408;28;20208;-71
2021/06/19 04:07:55;;;;;;;22.73;21.17;;;;;;;19.71;90.78;97899.91;5104494;28;20225;-71
2021/06/19 04:10:25;;;;;;;21.73;20.13;;;;;;;19.95;88.60;97904.41;5101077;28;20612;-71
2021/06/19 04:12:53;;;;;;;22.57;20.50;;;;;;;20.00;88.46;97913.66;5102743;28;20296;-70
2021/06/19 04:15:21;;;;;;;21.13;19.73;;;;;;;20.16;87.06;97913.00;5103398;28;20290;-70
2021/06/19 04:17:51;;;;;;;22.37;20.83;;;;;;;20.05;88.77;97917.28;5105244;27;20233;-71
2021/06/19 04:20:19;;;;;;;21.90;20.40;;;;;;;20.03;88.87;97910.50;5104090;28;20209;-70
2021/06/19 04:22:48;;;;;;;22.87;21.10;;;;;;;20.19;87.73;97911.75;5102662;28;20653;-70
2021/06/19 04:25:17;;;;;;;21.90;20.30;;;;;;;20.15;87.55;97922.13;5103946;28;20206;-72
2021/06/19 04:27:47;;;;;;;22.13;20.67;;;;;;;20.21;87.16;97931.97;5104852;27;20229;-70
2021/06/19 04:30:16;;;;;;;22.47;21.07;;;;;;;20.29;86.92;97935.41;5106115;27;20220;-70
2021/06/19 04:32:45;;;;;;;22.13;20.63;;;;;;;20.05;88.78;97944.19;5104523;28;20293;-70
2021/06/19 04:35:15;;;;;;;22.80;21.30;;;;;;;19.99;89.64;97945.09;5104322;27;20213;-70
2021/06/19 04:37:43;;;;;;;22.17;20.67;;;;;;;20.02;89.59;97943.81;5104498;28;20228;-71
2021/06/19 04:40:16;;;;;;;21.90;20.50;;;;;;;20.25;87.32;97943.91;5103477;28;20205;-72
2021/06/19 04:42:54;;;;;;;23.00;21.50;;;;;;;20.11;88.14;97942.47;5103599;28;20672;-71
2021/06/19 04:45:22;;;;;;;22.40;20.90;;;;;;;20.31;86.73;97947.56;5101457;28;20205;-70
2021/06/19 04:47:50;;;;;;;21.77;20.23;;;;;;;20.21;88.18;97958.88;5103049;27;20222;-70
2021/06/19 04:50:20;;;;;;;22.50;21.07;;;;;;;20.04;89.45;97953.28;5102715;28;20205;-71
2021/06/19 04:52:48;;;;;;;21.03;19.53;;;;;;;20.21;89.04;97964.25;5103927;28;20218;-71
2021/06/19 04:55:18;;;;;;;22.53;20.90;;;;;;;20.30;87.95;97948.63;5102244;28;20213;-70
2021/06/19 04:57:50;;;;;;;22.07;20.27;;;;;;;20.29;87.80;97946.16;5104836;27;20222;-71
2021/06/19 05:00:18;;;;;;;21.07;19.43;;;;;;;20.49;86.12;97945.88;5103774;28;20205;-70
2021/06/19 05:02:47;;;;;;;22.23;20.63;;;;;;;20.67;84.37;97953.88;5102515;28;20592;-71
2021/06/19 05:05:15;;;;;;;21.73;20.10;;;;;;;20.81;83.57;97956.38;5102189;28;20201;-70
2021/06/19 05:07:44;;;;;;;22.23;20.70;;;;;;;20.87;83.50;97949.25;5102667;28;20226;-70
2021/06/19 05:10:15;;;;;;;22.00;20.50;;;;;;;21.01;82.24;97949.88;5103091;27;20225;-70
2021/06/19 05:12:44;;;;;;;20.70;19.13;;;;;;;21.01;82.15;97941.78;5102274;28;20646;-71
2021/06/19 05:15:15;;;;;;;20.33;18.87;;;;;;;21.07;82.31;97948.94;5102700;28;20288;-70
2021/06/19 05:17:43;;;;;;;21.13;19.60;;;;;;;20.99;82.56;97946.59;5102891;28;20633;-71
2021/06/19 05:20:12;;;;;;;21.33;19.77;;;;;;;20.86;83.99;97950.31;5101839;28;20205;-70
2021/06/19 05:22:40;;;;;;;20.80;19.40;;;;;;;20.94;83.06;97944.59;5101879;28;20231;-71
2021/06/19 05:25:12;;;;;;;20.10;18.50;;;;;;;21.14;81.47;97951.53;5103131;27;20221;-71
2021/06/19 05:27:41;;;;;;;21.13;19.53;;;;;;;21.05;82.90;97956.44;5106617;27;20220;-70
2021/06/19 05:30:10;;;;;;;21.43;20.03;;;;;;;21.06;81.86;97960.75;5104460;27;20206;-70
2021/06/19 05:32:38;;;;;;;20.77;19.03;;;;;;;21.00;83.18;97961.69;5101000;28;20486;-71
2021/06/19 05:35:07;;;;;;;21.43;19.80;;;;;;;21.07;82.51;97960.53;5102070;28;20210;-71
2021/06/19 05:37:35;;;;;;;21.67;20.07;;;;;;;21.10;82.91;97959.25;5102689;28;20226;-70
2021/06/19 05:40:04;;;;;;;20.90;19.23;;;;;;;21.01;84.51;97966.84;5104783;27;20206;-71
2021/06/19 05:42:33;;;;;;;21.40;19.90;;;;;;;21.02;84.88;97973.88;5100862;28;20213;-70
2021/06/19 05:45:01;;;;;;;23.40;21.60;;;;;;;21.04;85.39;97974.47;5104282;28;20582;-70
2021/06/19 05:47:29;;;;;;;20.73;19.20;;;;;;;21.08;85.18;97972.97;5099925;28;20229;-71
2021/06/19 05:49:57;;;;;;;23.30;21.70;;;;;;;21.19;83.97;97990.16;5095278;27;20700;-70
2021/06/19 05:52:26;;;;;;;23.10;21.40;;;;;;;21.20;84.01;97994.50;5103860;27;20259;-70
2021/06/19 05:54:54;;;;;;;22.97;21.40;;;;;;;21.23;83.40;98001.31;5096936;28;20211;-71
2021/06/19 05:57:22;;;;;;;22.80;21.10;;;;;;;21.38;82.50;97998.97;5102890;28;20728;-72
2021/06/19 05:59:52;;;;;;;23.30;21.37;;;;;;;21.44;81.01;98005.31;5101119;28;20210;-71
2021/06/19 06:02:20;;;;;;;22.30;20.80;;;;;;;21.69;80.49;98001.56;5100261;28;20198;-71
2021/06/19 06:04:48;;;;;;;21.73;20.00;;;;;;;21.55;80.43;98009.84;5103533;27;20685;-71
2021/06/19 06:07:16;;;;;;;21.53;19.80;;;;;;;21.71;79.93;98006.72;5104427;27;20222;-71
2021/06/19 06:09:44;;;;;;;21.13;19.73;;;;;;;21.89;78.50;97997.66;5101601;28;20673;-70
2021/06/19 06:12:12;;;;;;;22.03;20.27;;;;;;;21.82;79.92;97989.72;5101807;28;20222;-70
2021/06/19 06:14:40;;;;;;;20.47;19.07;;;;;;;21.94;78.90;97995.06;5099301;28;20279;-70
2021/06/19 06:17:10;;;;;;;20.60;18.97;;;;;;;21.85;79.87;97989.25;5103532;28;20244;-70
2021/06/19 06:19:38;;;;;;;21.43;19.83;;;;;;;21.80;80.56;97984.56;5103962;27;20516;-71
2021/06/19 06:22:07;;;;;;;20.97;19.40;;;;;;;22.05;78.84;97988.00;5115972;28;20201;-71
2021/06/19 06:24:35;;;;;;;21.20;19.60;;;;;;;22.08;78.74;97992.91;5123629;28;20212;-72
2021/06/19 06:27:03;;;;;;;19.60;18.17;;;;;;;22.26;77.96;97994.63;5108860;28;20221;-71
2021/06/19 06:29:31;;;;;;;21.80;20.10;;;;;;;22.70;74.31;98000.31;5102801;28;20661;-71
2021/06/19 06:31:59;;;;;;;19.67;18.37;;;;;;;22.55;75.90;98006.31;5104078;27;20225;-71
2021/06/19 06:34:29;;;;;;;21.03;19.33;;;;;;;22.72;74.84;98008.19;5103498;27;20720;-71
2021/06/19 06:36:56;;;;;;;21.03;19.23;;;;;;;22.72;75.42;98021.72;5093050;28;20225;-71
2021/06/19 06:39:24;;;;;;;20.13;18.63;;;;;;;22.80;75.32;98026.72;5100435;28;20212;-70
2021/06/19 06:41:54;;;;;;;21.83;20.37;;;;;;;22.83;75.89;98030.81;5101237;28;20202;-70
2021/06/19 06:44:22;;;;;;;23.00;20.93;;;;;;;23.24;74.28;98034.25;5099487;28;20203;-71
2021/06/19 06:46:50;;;;;;;22.27;20.63;;;;;;;23.33;74.59;98031.97;5101831;28;20233;-71
2021/06/19 06:49:18;;;;;;;20.23;18.53;;;;;;;23.42;73.44;98029.63;5100599;28;20207;-71
2021/06/19 06:51:47;;;;;;;20.47;18.80;;;;;;;23.54;73.18;98022.28;5101631;28;20206;-70
2021/06/19 06:54:15;;;;;;;20.63;18.90;;;;;;;23.84;71.02;98031.06;5100870;28;20204;-70
2021/06/19 06:56:43;;;;;;;18.90;17.40;;;;;;;24.08;67.58;98026.25;5102313;28;20257;-71
2021/06/19 06:59:11;;;;;;;20.77;18.90;;;;;;;23.92;68.86;98025.22;5101601;28;20297;-71
2021/06/19 07:01:39;;;;;;;18.53;17.03;;;;;;;24.22;67.69;98024.00;5104485;28;20208;-70
2021/06/19 07:04:07;;;;;;;18.33;16.97;;;;;;;23.89;67.79;98036.53;5099179;28;20209;-70
2021/06/19 07:06:35;;;;;;;17.53;16.33;;;;;;;23.93;68.46;98040.38;5103072;28;20206;-72
2021/06/19 07:09:05;;;;;;;18.90;17.03;;;;;;;24.09;68.26;98043.34;5100502;28;20207;-71
2021/06/19 07:11:33;;;;;;;19.63;18.07;;;;;;;24.08;69.41;98050.63;5101258;28;20215;-71
2021/06/19 07:14:00;;;;;;;17.83;16.23;;;;;;;24.04;69.53;98049.47;5100655;28;20234;-72
2021/06/19 07:16:29;;;;;;;20.27;15.10;;;;;;;23.92;69.44;98052.28;5101523;28;20206;-71
2021/06/19 07:18:59;;;;;;;14.23;12.77;;;;;;;24.05;68.32;98045.72;5099998;28;20830;-72
2021/06/19 07:21:27;;;;;;;13.60;12.27;;;;;;;23.94;67.61;98042.00;5101160;28;20215;-72
2021/06/19 07:23:55;;;;;;;13.60;12.03;;;;;;;23.97;67.75;98038.00;5101531;28;20210;-70
2021/06/19 07:26:24;;;;;;;14.40;12.77;;;;;;;24.21;67.62;98045.88;5099744;28;20215;-72
2021/06/19 07:28:52;;;;;;;13.27;12.10;;;;;;;24.18;67.89;98044.53;5100034;28;20203;-71
2021/06/19 07:31:20;;;;;;;12.67;11.33;;;;;;;24.41;67.34;98037.19;5099080;28;20323;-71
2021/06/19 07:33:48;;;;;;;11.97;10.93;;;;;;;24.60;66.69;98047.69;5100918;28;20280;-71
2021/06/19 07:36:16;;;;;;;11.13;10.03;;;;;;;24.82;65.04;98036.84;5102695;28;20227;-71
2021/06/19 07:38:44;;;;;;;11.90;9.67;;;;;;;25.11;63.60;98028.44;5104950;28;20232;-70
2021/06/19 07:41:12;;;;;;;14.77;10.97;;;;;;;25.10;63.47;98046.59;5105437;28;20212;-71
2021/06/19 07:43:43;;;;;;;10.43;9.50;;;;;;;25.17;62.70;98035.53;5104585;28;20204;-72
2021/06/19 07:46:11;;;;;;;9.87;8.87;;;;;;;25.18;62.29;98033.63;5105396;27;20829;-71
2021/06/19 07:48:39;;;;;;;9.60;8.80;;;;;;;25.56;61.10;98032.59;5103462;27;20237;-71
2021/06/19 07:51:06;;;;;;;10.20;9.13;;;;;;;25.51;59.01;98031.72;5105122;27;20209;-71
2021/06/19 07:53:34;;;;;;;9.93;8.67;;;;;;;25.32;61.43;98025.88;5104200;28;20228;-70
2021/06/19 07:56:02;;;;;;;8.97;8.10;;;;;;;25.32;59.67;98034.84;5105165;28;20660;-71
2021/06/19 07:58:30;;;;;;;10.23;8.07;;;;;;;25.27;58.87;98029.38;5103841;28;20849;-71
2021/06/19 08:01:00;;;;;;;9.57;7.80;;;;;;;24.98;58.86;98029.69;5106504;27;20210;-72
2021/06/19 08:03:28;;;;;;;8.90;8.00;;;;;;;25.11;59.83;98037.38;5105013;28;20676;-71
2021/06/19 08:05:56;;;;;;;8.93;7.97;;;;;;;25.04;61.09;98039.47;5086923;28;20692;-70
2021/06/19 08:08:24;;;;;;;11.77;9.17;;;;;;;25.21;59.95;98039.34;5091312;28;20242;-70
2021/06/19 08:10:53;;;;;;;9.10;8.20;;;;;;;25.19;59.98;98040.69;5103181;28;20618;-70
2021/06/19 08:13:21;;;;;;;8.57;7.97;;;;;;;25.22;59.83;98034.75;5102721;27;20816;-71
2021/06/19 08:15:49;;;;;;;9.87;8.77;;;;;;;25.24;60.24;98030.69;5105531;28;20557;-70
2021/06/19 08:18:18;;;;;;;9.57;8.53;;;;;;;25.08;60.27;98029.75;5105171;28;20224;-70
2021/06/19 08:20:47;;;;;;;11.53;8.73;;;;;;;25.23;60.64;98039.91;5105011;28;20202;-71
2021/06/19 08:23:15;;;;;;;9.57;8.67;;;;;;;25.28;61.05;98037.25;5104448;28;20200;-70
2021/06/19 08:25:43;;;;;;;9.70;8.90;;;;;;;25.43;60.59;98038.44;5102565;28;20205;-70
2021/06/19 08:28:11;;;;;;;10.20;9.27;;;;;;;25.64;59.92;98039.44;5104426;27;20223;-70
2021/06/19 08:30:39;;;;;;;10.13;8.70;;;;;;;25.63;58.56;98040.50;5101937;28;20341;-71
2021/06/19 08:33:07;;;;;;;13.10;9.33;;;;;;;25.26;59.32;98044.81;5102329;28;20324;-71
2021/06/19 08:35:36;;;;;;;11.70;10.30;;;;;;;25.43;58.93;98035.75;5104014;28;20210;-71
2021/06/19 08:38:04;;;;;;;10.50;9.70;;;;;;;25.68;57.72;98032.41;5102391;28;20229;-70
2021/06/19 08:40:32;;;;;;;11.00;9.40;;;;;;;25.63;58.55;98029.66;5104564;27;20202;-71
2021/06/19 08:43:00;;;;;;;13.57;10.03;;;;;;;25.79;57.05;98024.31;5104180;28;20198;-70
2021/06/19 08:45:31;;;;;;;10.40;9.43;;;;;;;25.78;58.29;98018.09;5100750;28;20214;-71
2021/06/19 08:48:00;;;;;;;14.63;9.70;;;;;;;25.85;58.36;98018.66;5102690;27;20231;-70
2021/06/19 08:50:29;;;;;;;9.70;8.90;;;;;;;25.85;58.06;98015.94;5102421;28;20256;-71
2021/06/19 08:53:00;;;;;;;10.97;9.37;;;;;;;26.08;58.14;98010.34;5094905;28;20656;-69
2021/06/19 08:55:28;;;;;;;8.17;7.40;;;;;;;26.36;54.61;98011.03;5105637;27;20233;-70
2021/06/19 08:57:56;;;;;;;8.70;7.73;;;;;;;26.39;53.71;98008.56;5105572;27;20222;-71
2021/06/19 09:00:24;;;;;;;8.57;7.70;;;;;;;26.54;53.05;97999.66;5103224;28;20203;-70
2021/06/19 09:02:52;;;;;;;8.70;7.60;;;;;;;26.30;53.58;97991.97;5101777;28;20680;-71
2021/06/19 09:05:26;;;;;;;9.47;8.07;;;;;;;26.20;54.01;97985.72;5098327;28;20236;-70
2021/06/19 09:07:56;;;;;;;8.40;7.67;;;;;;;26.25;53.22;97988.44;5103520;27;20227;-70
2021/06/19 09:10:31;;;;;;;13.17;7.90;;;;;;;26.28;53.56;97986.00;5101894;28;20221;-71
2021/06/19 09:13:18;;;;;;;9.43;7.83;;;;;;;26.69;52.64;97993.41;5100138;28;20208;-71
2021/06/19 09:15:48;;;;;;;8.27;7.40;;;;;;;26.74;53.52;97995.34;5103257;28;20207;-70
2021/06/19 09:18:19;;;;;;;8.93;8.07;;;;;;;26.92;52.34;97993.19;5101136;28;20224;-70
2021/06/19 09:20:53;;;;;;;11.70;8.27;;;;;;;26.80;52.37;97994.25;5101037;28;20492;-70
2021/06/19 09:23:28;;;;;;;11.57;8.37;;;;;;;27.18;50.89;97990.47;5104095;27;20197;-70
2021/06/19 09:26:09;;;;;;;9.10;8.23;;;;;;;27.04;50.55;97991.00;5100367;28;20208;-70
2021/06/19 09:28:59;;;;;;;11.83;8.67;;;;;;;26.93;51.43;97983.94;5100711;28;20221;-70
2021/06/19 09:31:34;;;;;;;9.53;8.43;;;;;;;27.09;51.06;97985.59;5094188;28;20213;-71
2021/06/19 09:34:06;;;;;;;9.43;8.63;;;;;;;27.33;50.60;97984.22;5100667;28;20569;-69
2021/06/19 09:36:43;;;;;;;8.70;7.90;;;;;;;27.48;50.15;97988.81;5101198;28;20208;-71
2021/06/19 09:39:13;;;;;;;9.60;8.70;;;;;;;27.32;51.31;97986.09;5103446;27;20596;-71
2021/06/19 09:41:44;;;;;;;10.93;8.53;;;;;;;27.38;52.14;97982.28;5102211;28;20202;-71
2021/06/19 09:44:12;;;;;;;10.30;9.37;;;;;;;27.56;50.79;97988.28;5103464;28;20204;-71
2021/06/19 09:46:40;;;;;;;10.60;8.77;;;;;;;27.87;49.92;97978.09;5099921;27;20216;-71
2021/06/19 09:49:14;;;;;;;12.83;11.73;;;;;;;27.91;51.80;97969.38;5102560;28;20620;-70
2021/06/19 09:51:47;;;;;;;9.10;8.40;;;;;;;28.10;50.16;97975.00;5099566;28;20205;-70
2021/06/19 09:54:16;;;;;;;8.73;7.93;;;;;;;28.15;48.45;97973.13;5082630;28;20220;-71
2021/06/19 09:56:50;;;;;;;10.20;9.40;;;;;;;27.97;50.29;97955.47;5101479;28;20206;-70
2021/06/19 09:59:20;;;;;;;12.20;10.90;;;;;;;28.18;48.81;97949.94;5101175;28;20677;-71
2021/06/19 10:01:48;;;;;;;9.00;8.10;;;;;;;28.30;49.26;97952.31;5099606;28;20884;-72
2021/06/19 10:04:20;;;;;;;10.33;8.13;;;;;;;28.45;48.27;97952.25;5099913;28;20198;-71
2021/06/19 10:06:48;;;;;;;8.97;8.13;;;;;;;28.52;47.32;97948.38;5102966;28;20251;-70
2021/06/19 10:09:16;;;;;;;10.33;8.37;;;;;;;28.17;48.00;97940.13;5102672;27;20408;-71
2021/06/19 10:11:46;;;;;;;13.70;8.90;;;;;;;28.09;47.52;97943.44;5102851;28;20210;-71
2021/06/19 10:14:18;;;;;;;9.90;9.00;;;;;;;28.14;47.61;97935.22;5099599;28;20226;-71
2021/06/19 10:16:48;;;;;;;11.37;10.17;;;;;;;27.83;48.49;97941.63;5104053;27;20224;-70
2021/06/19 10:19:22;;;;;;;11.13;8.90;;;;;;;28.19;48.30;97935.22;5099355;28;20193;-70
2021/06/19 10:21:51;;;;;;;10.70;9.33;;;;;;;28.18;47.96;97933.59;5100642;28;20754;-70
2021/06/19 10:24:20;;;;;;;10.67;9.07;;;;;;;28.11;47.62;97933.88;5101074;28;20196;-70
2021/06/19 10:26:48;;;;;;;10.50;9.03;;;;;;;28.26;46.89;97924.84;5101820;28;20992;-71
2021/06/19 10:29:18;;;;;;;9.47;8.53;;;;;;;28.35;47.46;97927.78;5101451;27;20236;-70
2021/06/19 10:31:49;;;;;;;10.27;9.47;;;;;;;28.29;46.62;97935.19;5103347;28;20204;-71
2021/06/19 10:34:19;;;;;;;10.03;9.03;;;;;;;28.58;46.86;97928.97;5101177;28;20228;-71
2021/06/19 10:36:47;;;;;;;9.40;8.53;;;;;;;28.38;46.98;97926.41;5101443;28;20221;-72
2021/06/19 10:39:35;;;;;;;12.33;7.93;;;;;;;28.99;46.61;97927.06;5100065;28;20212;-70
2021/06/19 10:42:04;;;;;;;10.73;8.93;;;;;;;29.11;45.06;97929.38;5101472;28;20197;-70
2021/06/19 10:44:58;;;;;;;9.70;8.80;;;;;;;29.36;45.31;97917.41;5102149;28;20193;-70
2021/06/19 10:47:28;;;;;;;13.17;8.57;;;;;;;29.48;44.28;97918.94;5101612;27;20363;-71
2021/06/19 10:49:59;;;;;;;12.33;8.73;;;;;;;30.45;42.09;97916.03;5095869;28;20224;-71
2021/06/19 10:52:32;;;;;;;11.97;8.43;;;;;;;30.60;42.13;97910.38;5101033;28;20206;-71
2021/06/19 10:55:19;;;;;;;15.30;9.00;;;;;;;31.12;40.82;97904.00;5101553;28;20250;-71
2021/06/19 10:57:48;;;;;;;10.33;9.43;;;;;;;31.88;38.97;97907.50;5114410;28;20230;-72
2021/06/19 11:00:39;;;;;;;10.50;8.80;;;;;;;31.56;39.92;97910.06;5111674;28;20211;-69
2021/06/19 11:03:08;;;;;;;9.30;8.40;;;;;;;31.33;39.94;97912.69;5096416;28;20680;-71
2021/06/19 11:06:22;;;;;;;9.47;8.47;;;;;;;31.99;38.61;97903.44;5099510;28;20198;-72
2021/06/19 11:09:05;;;;;;;8.27;7.63;;;;;;;32.54;37.00;97896.19;5040003;28;20216;-71
2021/06/19 11:11:54;;;;;;;9.73;8.77;;;;;;;31.95;38.68;97905.16;5041301;28;20213;-72
2021/06/19 11:14:54;;;;;;;10.27;9.27;;;;;;;31.74;38.88;97897.38;5092386;27;20673;-71
2021/06/19 11:17:56;;;;;;;9.63;8.63;;;;;;;32.20;37.76;97892.00;5106901;27;20610;-71
2021/06/19 11:20:28;;;;;;;10.80;9.70;;;;;;;32.29;37.85;97889.34;5074966;28;20209;-72
2021/06/19 11:22:59;;;;;;;10.97;9.27;;;;;;;32.02;38.45;97886.41;5081647;28;20248;-72
2021/06/19 11:26:06;;;;;;;8.60;7.90;;;;;;;32.17;38.04;97885.22;5090481;28;20207;-71
2021/06/19 11:28:34;;;;;;;12.60;8.70;;;;;;;32.19;37.89;97882.16;5104686;28;20236;-71
2021/06/19 11:31:04;;;;;;;11.10;9.07;;;;;;;31.74;37.63;97880.94;5104305;28;20598;-70
2021/06/19 11:33:50;;;;;;;10.10;8.70;;;;;;;31.61;38.34;97868.06;5104332;28;20212;-71
2021/06/19 11:36:34;;;;;;;9.30;7.87;;;;;;;32.56;38.16;97860.19;5104722;28;20226;-71